sensor_id;sensor_type;location;lat;lon;timestamp;pressure;altitude;pressure_sealevel;temperature;humidity
60087;BME280;45960;53.630;55.972;2023-04-07T00:00:15;100029.97;;;10.45;49.72
60087;BME280;45960;53.630;55.972;2023-04-07T00:01:16;100034.78;;;10.40;49.96
60087;BME280;45960;53.630;55.972;2023-04-07T00:02:17;100035.00;;;10.37;49.83
60087;BME280;45960;53.630;55.972;2023-04-07T00:03:18;100033.25;;;10.36;49.95
60087;BME280;45960;53.630;55.972;2023-04-07T00:04:19;100028.13;;;10.33;50.18
60087;BME280;45960;53.630;55.972;2023-04-07T00:05:20;100035.63;;;10.28;50.13
60087;BME280;45960;53.630;55.972;2023-04-07T00:06:21;100042.84;;;10.26;50.16
60087;BME280;45960;53.630;55.972;2023-04-07T00:07:22;100037.72;;;10.23;50.05
60087;BME280;45960;53.630;55.972;2023-04-07T00:08:23;100047.41;;;10.24;50.33
60087;BME280;45960;53.630;55.972;2023-04-07T00:09:24;100037.81;;;10.21;50.35
60087;BME280;45960;53.630;55.972;2023-04-07T00:10:26;100037.94;;;10.20;50.38
60087;BME280;45960;53.630;55.972;2023-04-07T00:11:27;100035.56;;;10.15;50.31
60087;BME280;45960;53.630;55.972;2023-04-07T00:12:28;100041.94;;;10.13;50.34
60087;BME280;45960;53.630;55.972;2023-04-07T00:13:29;100043.84;;;10.11;50.43
60087;BME280;45960;53.630;55.972;2023-04-07T00:14:30;100048.34;;;10.10;50.42
60087;BME280;45960;53.630;55.972;2023-04-07T00:15:30;100045.81;;;10.08;50.16
60087;BME280;45960;53.630;55.972;2023-04-07T00:16:32;100042.38;;;10.06;50.44
60087;BME280;45960;53.630;55.972;2023-04-07T00:17:33;100043.34;;;10.05;50.59
60087;BME280;45960;53.630;55.972;2023-04-07T00:18:33;100044.41;;;10.03;50.54
60087;BME280;45960;53.630;55.972;2023-04-07T00:19:35;100049.81;;;10.01;50.46
60087;BME280;45960;53.630;55.972;2023-04-07T00:20:36;100054.19;;;10.02;50.47
60087;BME280;45960;53.630;55.972;2023-04-07T00:21:37;100055.16;;;10.01;50.50
60087;BME280;45960;53.630;55.972;2023-04-07T00:22:38;100046.31;;;10.01;50.38
60087;BME280;45960;53.630;55.972;2023-04-07T00:23:39;100056.00;;;10.02;50.73
60087;BME280;45960;53.630;55.972;2023-04-07T00:24:40;100046.19;;;10.02;50.72
60087;BME280;45960;53.630;55.972;2023-04-07T00:25:41;100061.13;;;10.05;50.58
60087;BME280;45960;53.630;55.972;2023-04-07T00:26:42;100059.22;;;10.07;50.43
60087;BME280;45960;53.630;55.972;2023-04-07T00:27:43;100059.16;;;10.08;50.45
60087;BME280;45960;53.630;55.972;2023-04-07T00:28:44;100052.84;;;10.09;50.64
60087;BME280;45960;53.630;55.972;2023-04-07T00:29:45;100059.66;;;10.14;50.34
60087;BME280;45960;53.630;55.972;2023-04-07T00:30:46;100060.44;;;10.16;50.33
60087;BME280;45960;53.630;55.972;2023-04-07T00:31:48;100062.88;;;10.19;50.25
60087;BME280;45960;53.630;55.972;2023-04-07T00:32:49;100066.22;;;10.22;50.31
60087;BME280;45960;53.630;55.972;2023-04-07T00:33:51;100062.69;;;10.22;50.31
60087;BME280;45960;53.630;55.972;2023-04-07T00:34:52;100065.94;;;10.27;50.28
60087;BME280;45960;53.630;55.972;2023-04-07T00:35:53;100055.25;;;10.27;50.26
60087;BME280;45960;53.630;55.972;2023-04-07T00:36:54;100058.69;;;10.29;50.16
60087;BME280;45960;53.630;55.972;2023-04-07T00:37:55;100055.72;;;10.34;50.51
60087;BME280;45960;53.630;55.972;2023-04-07T00:38:56;100059.97;;;10.36;50.22
60087;BME280;45960;53.630;55.972;2023-04-07T00:39:57;100065.13;;;10.39;50.06
60087;BME280;45960;53.630;55.972;2023-04-07T00:40:59;100066.81;;;10.40;50.15
60087;BME280;45960;53.630;55.972;2023-04-07T00:42:02;100064.91;;;10.42;49.91
60087;BME280;45960;53.630;55.972;2023-04-07T00:43:04;100069.19;;;10.45;50.01
60087;BME280;45960;53.630;55.972;2023-04-07T00:44:05;100067.16;;;10.48;49.74
60087;BME280;45960;53.630;55.972;2023-04-07T00:45:06;100068.78;;;10.51;49.86
60087;BME280;45960;53.630;55.972;2023-04-07T00:46:07;100063.44;;;10.51;49.96
60087;BME280;45960;53.630;55.972;2023-04-07T00:47:09;100070.38;;;10.53;49.84
60087;BME280;45960;53.630;55.972;2023-04-07T00:48:10;100075.50;;;10.57;49.73
60087;BME280;45960;53.630;55.972;2023-04-07T00:49:11;100068.25;;;10.59;49.37
60087;BME280;45960;53.630;55.972;2023-04-07T00:50:13;100070.72;;;10.62;49.75
60087;BME280;45960;53.630;55.972;2023-04-07T00:51:14;100070.50;;;10.65;49.64
60087;BME280;45960;53.630;55.972;2023-04-07T00:52:16;100078.31;;;10.68;49.62
60087;BME280;45960;53.630;55.972;2023-04-07T00:53:18;100072.84;;;10.69;49.57
60087;BME280;45960;53.630;55.972;2023-04-07T00:54:21;100075.19;;;10.74;49.49
60087;BME280;45960;53.630;55.972;2023-04-07T00:55:22;100074.13;;;10.77;49.28
60087;BME280;45960;53.630;55.972;2023-04-07T00:56:24;100073.06;;;10.79;49.50
60087;BME280;45960;53.630;55.972;2023-04-07T00:57:25;100084.50;;;10.81;49.06
60087;BME280;45960;53.630;55.972;2023-04-07T00:58:26;100079.16;;;10.81;49.21
60087;BME280;45960;53.630;55.972;2023-04-07T00:59:28;100083.53;;;10.82;49.17
60087;BME280;45960;53.630;55.972;2023-04-07T01:00:35;100075.63;;;10.81;49.17
60087;BME280;45960;53.630;55.972;2023-04-07T01:02:09;100080.09;;;10.80;49.22
60087;BME280;45960;53.630;55.972;2023-04-07T01:03:20;100081.84;;;10.81;49.17
60087;BME280;45960;53.630;55.972;2023-04-07T01:05:37;100089.75;;;10.83;48.98
60087;BME280;45960;53.630;55.972;2023-04-07T01:06:43;100091.44;;;10.84;49.13
60087;BME280;45960;53.630;55.972;2023-04-07T01:07:57;100096.78;;;10.84;49.12
60087;BME280;45960;53.630;55.972;2023-04-07T01:09:09;100098.50;;;10.85;49.08
60087;BME280;45960;53.630;55.972;2023-04-07T01:10:17;100099.34;;;10.85;49.00
60087;BME280;45960;53.630;55.972;2023-04-07T01:12:11;100099.34;;;10.85;48.92
60087;BME280;45960;53.630;55.972;2023-04-07T01:14:08;100104.06;;;10.82;49.02
60087;BME280;45960;53.630;55.972;2023-04-07T01:15:10;100108.03;;;10.76;48.79
60087;BME280;45960;53.630;55.972;2023-04-07T01:16:26;100110.47;;;10.79;49.02
60087;BME280;45960;53.630;55.972;2023-04-07T01:17:28;100109.63;;;10.79;48.84
60087;BME280;45960;53.630;55.972;2023-04-07T01:18:34;100110.25;;;10.82;48.90
60087;BME280;45960;53.630;55.972;2023-04-07T01:19:39;100119.34;;;10.80;49.13
60087;BME280;45960;53.630;55.972;2023-04-07T01:20:47;100114.09;;;10.78;49.09
60087;BME280;45960;53.630;55.972;2023-04-07T01:21:51;100116.03;;;10.76;49.35
60087;BME280;45960;53.630;55.972;2023-04-07T01:22:57;100122.31;;;10.75;49.32
60087;BME280;45960;53.630;55.972;2023-04-07T01:24:26;100121.59;;;10.73;49.30
60087;BME280;45960;53.630;55.972;2023-04-07T01:26:05;100120.06;;;10.69;49.56
60087;BME280;45960;53.630;55.972;2023-04-07T01:27:21;100129.50;;;10.62;49.59
60087;BME280;45960;53.630;55.972;2023-04-07T01:29:36;100128.59;;;10.61;49.60
60087;BME280;45960;53.630;55.972;2023-04-07T01:30:39;100132.16;;;10.62;49.47
60087;BME280;45960;53.630;55.972;2023-04-07T01:31:42;100140.19;;;10.62;49.62
60087;BME280;45960;53.630;55.972;2023-04-07T01:32:46;100131.41;;;10.60;49.57
60087;BME280;45960;53.630;55.972;2023-04-07T01:33:51;100129.88;;;10.56;49.78
60087;BME280;45960;53.630;55.972;2023-04-07T01:34:54;100130.75;;;10.56;49.72
60087;BME280;45960;53.630;55.972;2023-04-07T01:35:58;100137.16;;;10.53;50.01
60087;BME280;45960;53.630;55.972;2023-04-07T01:37:03;100138.09;;;10.52;50.26
60087;BME280;45960;53.630;55.972;2023-04-07T01:38:05;100140.03;;;10.50;50.11
60087;BME280;45960;53.630;55.972;2023-04-07T01:39:08;100142.91;;;10.47;50.21
60087;BME280;45960;53.630;55.972;2023-04-07T01:40:10;100135.84;;;10.46;49.94
60087;BME280;45960;53.630;55.972;2023-04-07T01:41:13;100134.16;;;10.45;50.31
60087;BME280;45960;53.630;55.972;2023-04-07T01:42:15;100143.97;;;10.45;50.46
60087;BME280;45960;53.630;55.972;2023-04-07T01:43:19;100142.47;;;10.41;50.38
60087;BME280;45960;53.630;55.972;2023-04-07T01:44:21;100144.28;;;10.40;50.33
60087;BME280;45960;53.630;55.972;2023-04-07T01:45:23;100140.63;;;10.41;50.33
60087;BME280;45960;53.630;55.972;2023-04-07T01:46:24;100151.22;;;10.43;50.41
60087;BME280;45960;53.630;55.972;2023-04-07T01:47:27;100147.50;;;10.45;50.40
60087;BME280;45960;53.630;55.972;2023-04-07T01:48:30;100150.19;;;10.45;50.54
60087;BME280;45960;53.630;55.972;2023-04-07T01:49:32;100151.88;;;10.46;50.36
60087;BME280;45960;53.630;55.972;2023-04-07T01:50:36;100150.19;;;10.45;50.48
60087;BME280;45960;53.630;55.972;2023-04-07T01:51:39;100154.66;;;10.45;50.46
60087;BME280;45960;53.630;55.972;2023-04-07T01:52:40;100153.78;;;10.44;50.39
60087;BME280;45960;53.630;55.972;2023-04-07T01:53:44;100161.28;;;10.39;50.66
60087;BME280;45960;53.630;55.972;2023-04-07T01:54:46;100159.69;;;10.49;50.39
60087;BME280;45960;53.630;55.972;2023-04-07T01:55:47;100161.94;;;10.56;50.27
60087;BME280;45960;53.630;55.972;2023-04-07T01:56:49;100157.56;;;10.55;50.26
60087;BME280;45960;53.630;55.972;2023-04-07T01:57:52;100164.53;;;10.57;50.28
60087;BME280;45960;53.630;55.972;2023-04-07T01:58:53;100160.88;;;10.58;50.06
60087;BME280;45960;53.630;55.972;2023-04-07T01:59:57;100170.50;;;10.61;50.16
60087;BME280;45960;53.630;55.972;2023-04-07T02:01:00;100167.94;;;10.59;50.18
60087;BME280;45960;53.630;55.972;2023-04-07T02:02:01;100175.84;;;10.61;50.25
60087;BME280;45960;53.630;55.972;2023-04-07T02:03:14;100166.13;;;10.60;50.11
60087;BME280;45960;53.630;55.972;2023-04-07T02:04:35;100172.63;;;10.56;50.47
60087;BME280;45960;53.630;55.972;2023-04-07T02:05:39;100164.09;;;10.50;50.29
60087;BME280;45960;53.630;55.972;2023-04-07T02:06:46;100165.56;;;10.55;50.11
60087;BME280;45960;53.630;55.972;2023-04-07T02:07:55;100181.31;;;10.59;50.14
60087;BME280;45960;53.630;55.972;2023-04-07T02:09:03;100181.19;;;10.61;50.27
60087;BME280;45960;53.630;55.972;2023-04-07T02:10:09;100188.25;;;10.62;50.24
60087;BME280;45960;53.630;55.972;2023-04-07T02:11:13;100192.44;;;10.66;50.17
60087;BME280;45960;53.630;55.972;2023-04-07T02:12:16;100189.56;;;10.69;50.08
60087;BME280;45960;53.630;55.972;2023-04-07T02:13:38;100187.63;;;10.71;49.96
60087;BME280;45960;53.630;55.972;2023-04-07T02:15:07;100191.06;;;10.73;49.83
60087;BME280;45960;53.630;55.972;2023-04-07T02:16:09;100197.16;;;10.75;49.87
60087;BME280;45960;53.630;55.972;2023-04-07T02:17:10;100200.38;;;10.80;49.89
60087;BME280;45960;53.630;55.972;2023-04-07T02:18:14;100200.94;;;10.85;49.79
60087;BME280;45960;53.630;55.972;2023-04-07T02:19:16;100191.00;;;10.87;49.90
60087;BME280;45960;53.630;55.972;2023-04-07T02:20:19;100200.72;;;10.88;49.84
60087;BME280;45960;53.630;55.972;2023-04-07T02:21:21;100204.34;;;10.87;49.98
60087;BME280;45960;53.630;55.972;2023-04-07T02:22:22;100202.63;;;10.86;49.98
60087;BME280;45960;53.630;55.972;2023-04-07T02:23:24;100211.31;;;10.90;49.94
60087;BME280;45960;53.630;55.972;2023-04-07T02:24:25;100211.19;;;10.91;50.12
60087;BME280;45960;53.630;55.972;2023-04-07T02:25:31;100208.44;;;10.93;50.04
60087;BME280;45960;53.630;55.972;2023-04-07T02:26:34;100210.03;;;10.95;49.83
60087;BME280;45960;53.630;55.972;2023-04-07T02:27:35;100214.19;;;11.00;49.98
60087;BME280;45960;53.630;55.972;2023-04-07T02:28:36;100207.88;;;11.01;49.77
60087;BME280;45960;53.630;55.972;2023-04-07T02:29:37;100220.19;;;11.03;49.98
60087;BME280;45960;53.630;55.972;2023-04-07T02:30:39;100210.56;;;11.01;49.61
60087;BME280;45960;53.630;55.972;2023-04-07T02:31:40;100213.16;;;11.02;49.94
60087;BME280;45960;53.630;55.972;2023-04-07T02:32:41;100214.00;;;11.03;50.01
60087;BME280;45960;53.630;55.972;2023-04-07T02:33:42;100219.13;;;11.06;49.86
60087;BME280;45960;53.630;55.972;2023-04-07T02:34:43;100229.81;;;11.06;49.70
60087;BME280;45960;53.630;55.972;2023-04-07T02:35:44;100234.22;;;11.07;49.79
60087;BME280;45960;53.630;55.972;2023-04-07T02:36:45;100230.59;;;11.08;49.98
60087;BME280;45960;53.630;55.972;2023-04-07T02:37:46;100230.59;;;11.08;49.99
60087;BME280;45960;53.630;55.972;2023-04-07T02:38:47;100243.94;;;11.08;49.70
60087;BME280;45960;53.630;55.972;2023-04-07T02:39:48;100243.94;;;11.08;49.89
60087;BME280;45960;53.630;55.972;2023-04-07T02:40:49;100249.28;;;11.08;50.01
60087;BME280;45960;53.630;55.972;2023-04-07T02:41:50;100242.25;;;11.07;50.03
60087;BME280;45960;53.630;55.972;2023-04-07T02:42:51;100244.59;;;11.11;49.74
60087;BME280;45960;53.630;55.972;2023-04-07T02:43:52;100249.94;;;11.11;49.86
60087;BME280;45960;53.630;55.972;2023-04-07T02:44:53;100249.72;;;11.14;49.98
60087;BME280;45960;53.630;55.972;2023-04-07T02:45:54;100255.06;;;11.14;49.94
60087;BME280;45960;53.630;55.972;2023-04-07T02:46:57;100258.63;;;11.15;49.98
60087;BME280;45960;53.630;55.972;2023-04-07T02:47:58;100259.34;;;11.17;49.93
60087;BME280;45960;53.630;55.972;2023-04-07T02:48:59;100266.66;;;11.15;49.67
60087;BME280;45960;53.630;55.972;2023-04-07T02:50:00;100261.94;;;11.18;50.01
60087;BME280;45960;53.630;55.972;2023-04-07T02:51:02;100257.34;;;11.20;49.85
60087;BME280;45960;53.630;55.972;2023-04-07T02:52:03;100263.78;;;11.18;49.94
60087;BME280;45960;53.630;55.972;2023-04-07T02:53:04;100256.34;;;11.09;49.98
60087;BME280;45960;53.630;55.972;2023-04-07T02:54:05;100267.72;;;11.12;49.98
60087;BME280;45960;53.630;55.972;2023-04-07T02:55:06;100268.78;;;11.10;49.97
60087;BME280;45960;53.630;55.972;2023-04-07T02:56:09;100277.75;;;11.09;49.88
60087;BME280;45960;53.630;55.972;2023-04-07T02:57:10;100278.63;;;11.09;49.99
60087;BME280;45960;53.630;55.972;2023-04-07T02:58:11;100288.44;;;11.09;50.19
60087;BME280;45960;53.630;55.972;2023-04-07T02:59:16;100285.75;;;11.09;50.17
60087;BME280;45960;53.630;55.972;2023-04-07T03:00:18;100285.75;;;11.09;50.19
60087;BME280;45960;53.630;55.972;2023-04-07T03:01:34;100297.41;;;11.08;50.36
60087;BME280;45960;53.630;55.972;2023-04-07T03:02:36;100290.59;;;11.04;50.25
60087;BME280;45960;53.630;55.972;2023-04-07T03:03:38;100302.97;;;11.05;50.15
60087;BME280;45960;53.630;55.972;2023-04-07T03:04:46;100302.97;;;11.05;50.25
60087;BME280;45960;53.630;55.972;2023-04-07T03:05:48;100302.78;;;11.08;50.22
60087;BME280;45960;53.630;55.972;2023-04-07T03:06:49;100309.81;;;11.09;50.27
60087;BME280;45960;53.630;55.972;2023-04-07T03:07:50;100306.41;;;11.07;50.42
60087;BME280;45960;53.630;55.972;2023-04-07T03:08:51;100315.38;;;11.06;50.29
60087;BME280;45960;53.630;55.972;2023-04-07T03:09:52;100303.41;;;10.98;50.36
60087;BME280;45960;53.630;55.972;2023-04-07T03:10:53;100312.16;;;11.01;50.52
60087;BME280;45960;53.630;55.972;2023-04-07T03:12:00;100321.13;;;11.00;50.63
60087;BME280;45960;53.630;55.972;2023-04-07T03:13:06;100327.47;;;10.98;50.49
60087;BME280;45960;53.630;55.972;2023-04-07T03:14:08;100325.63;;;10.99;50.80
60087;BME280;45960;53.630;55.972;2023-04-07T03:15:16;100327.47;;;10.98;51.11
60087;BME280;45960;53.630;55.972;2023-04-07T03:16:20;100329.91;;;11.02;51.13
60087;BME280;45960;53.630;55.972;2023-04-07T03:17:48;100333.53;;;11.01;51.16
60087;BME280;45960;53.630;55.972;2023-04-07T03:18:50;100339.75;;;11.01;51.30
60087;BME280;45960;53.630;55.972;2023-04-07T03:19:52;100330.13;;;10.98;51.65
60087;BME280;45960;53.630;55.972;2023-04-07T03:20:54;100347.88;;;11.00;51.95
60087;BME280;45960;53.630;55.972;2023-04-07T03:21:55;100344.22;;;11.01;51.90
60087;BME280;45960;53.630;55.972;2023-04-07T03:22:57;100348.94;;;10.97;51.99
60087;BME280;45960;53.630;55.972;2023-04-07T03:24:02;100352.97;;;10.90;52.11
60087;BME280;45960;53.630;55.972;2023-04-07T03:25:04;100354.44;;;10.81;52.41
60087;BME280;45960;53.630;55.972;2023-04-07T03:26:05;100358.44;;;10.74;52.79
60087;BME280;45960;53.630;55.972;2023-04-07T03:27:09;100362.38;;;10.68;52.49
60087;BME280;45960;53.630;55.972;2023-04-07T03:28:18;100366.69;;;10.57;52.84
60087;BME280;45960;53.630;55.972;2023-04-07T03:29:19;100369.00;;;10.48;52.79
60087;BME280;45960;53.630;55.972;2023-04-07T03:30:20;100366.81;;;10.41;52.86
60087;BME280;45960;53.630;55.972;2023-04-07T03:31:22;100372.53;;;10.35;53.17
60087;BME280;45960;53.630;55.972;2023-04-07T03:32:25;100375.69;;;10.27;53.07
60087;BME280;45960;53.630;55.972;2023-04-07T03:33:26;100379.47;;;10.23;53.73
60087;BME280;45960;53.630;55.972;2023-04-07T03:34:28;100379.88;;;10.17;53.52
60087;BME280;45960;53.630;55.972;2023-04-07T03:35:31;100383.66;;;10.13;53.74
60087;BME280;45960;53.630;55.972;2023-04-07T03:36:32;100385.75;;;10.07;53.72
60087;BME280;45960;53.630;55.972;2023-04-07T03:37:37;100384.25;;;10.03;53.78
60087;BME280;45960;53.630;55.972;2023-04-07T03:38:41;100386.31;;;9.98;53.81
60087;BME280;45960;53.630;55.972;2023-04-07T03:39:42;100397.28;;;9.94;54.09
60087;BME280;45960;53.630;55.972;2023-04-07T03:40:59;100384.22;;;9.89;54.17
60087;BME280;45960;53.630;55.972;2023-04-07T03:42:00;100386.91;;;9.89;54.39
60087;BME280;45960;53.630;55.972;2023-04-07T03:43:05;100390.31;;;9.91;54.34
60087;BME280;45960;53.630;55.972;2023-04-07T03:44:12;100394.72;;;9.92;54.47
60087;BME280;45960;53.630;55.972;2023-04-07T03:45:14;100399.09;;;9.93;54.92
60087;BME280;45960;53.630;55.972;2023-04-07T03:46:21;100404.44;;;9.93;54.93
60087;BME280;45960;53.630;55.972;2023-04-07T03:47:23;100407.09;;;9.93;55.29
60087;BME280;45960;53.630;55.972;2023-04-07T03:48:29;100410.63;;;9.94;54.85
60087;BME280;45960;53.630;55.972;2023-04-07T03:49:42;100410.53;;;9.95;55.13
60087;BME280;45960;53.630;55.972;2023-04-07T03:50:44;100411.50;;;9.94;55.04
60087;BME280;45960;53.630;55.972;2023-04-07T03:51:49;100412.44;;;9.93;54.90
60087;BME280;45960;53.630;55.972;2023-04-07T03:52:52;100417.88;;;9.92;54.98
60087;BME280;45960;53.630;55.972;2023-04-07T03:53:58;100425.78;;;9.93;55.01
60087;BME280;45960;53.630;55.972;2023-04-07T03:55:10;100424.25;;;9.89;54.68
60087;BME280;45960;53.630;55.972;2023-04-07T03:56:11;100415.47;;;9.87;54.64
60087;BME280;45960;53.630;55.972;2023-04-07T03:57:17;100427.00;;;9.88;54.65
60087;BME280;45960;53.630;55.972;2023-04-07T03:58:21;100426.94;;;9.89;54.74
60087;BME280;45960;53.630;55.972;2023-04-07T03:59:23;100424.25;;;9.89;54.46
60087;BME280;45960;53.630;55.972;2023-04-07T04:00:32;100428.03;;;9.85;54.47
60087;BME280;45960;53.630;55.972;2023-04-07T04:01:43;100422.63;;;9.86;54.55
60087;BME280;45960;53.630;55.972;2023-04-07T04:02:48;100436.81;;;9.87;54.62
60087;BME280;45960;53.630;55.972;2023-04-07T04:03:53;100426.16;;;9.87;54.39
60087;BME280;45960;53.630;55.972;2023-04-07T04:05:02;100441.78;;;9.93;54.39
60087;BME280;45960;53.630;55.972;2023-04-07T04:06:04;100432.66;;;9.97;54.34
60087;BME280;45960;53.630;55.972;2023-04-07T04:07:06;100442.28;;;10.00;54.09
60087;BME280;45960;53.630;55.972;2023-04-07T04:08:19;100450.00;;;10.04;54.12
60087;BME280;45960;53.630;55.972;2023-04-07T04:09:20;100462.44;;;10.05;53.84
60087;BME280;45960;53.630;55.972;2023-04-07T04:10:23;100453.44;;;10.06;53.81
60087;BME280;45960;53.630;55.972;2023-04-07T04:11:27;100459.06;;;10.02;53.85
60087;BME280;45960;53.630;55.972;2023-04-07T04:12:32;100457.44;;;9.99;53.53
60087;BME280;45960;53.630;55.972;2023-04-07T04:13:39;100457.72;;;9.95;53.49
60087;BME280;45960;53.630;55.972;2023-04-07T04:14:40;100467.44;;;9.96;53.62
60087;BME280;45960;53.630;55.972;2023-04-07T04:15:43;100466.59;;;9.95;53.63
60087;BME280;45960;53.630;55.972;2023-04-07T04:16:48;100470.38;;;9.91;53.25
60087;BME280;45960;53.630;55.972;2023-04-07T04:18:09;100472.47;;;9.86;53.46
60087;BME280;45960;53.630;55.972;2023-04-07T04:19:11;100465.41;;;9.85;53.27
60087;BME280;45960;53.630;55.972;2023-04-07T04:20:12;100471.59;;;9.85;53.32
60087;BME280;45960;53.630;55.972;2023-04-07T04:21:18;100478.84;;;9.83;53.54
60087;BME280;45960;53.630;55.972;2023-04-07T04:22:20;100470.94;;;9.82;53.41
60087;BME280;45960;53.630;55.972;2023-04-07T04:23:25;100478.06;;;9.81;53.42
60087;BME280;45960;53.630;55.972;2023-04-07T04:24:28;100484.38;;;9.80;53.58
60087;BME280;45960;53.630;55.972;2023-04-07T04:25:34;100485.91;;;9.84;53.27
60087;BME280;45960;53.630;55.972;2023-04-07T04:26:39;100481.41;;;9.85;53.39
60087;BME280;45960;53.630;55.972;2023-04-07T04:27:45;100479.03;;;9.80;53.19
60087;BME280;45960;53.630;55.972;2023-04-07T04:28:55;100485.22;;;9.81;53.22
60087;BME280;45960;53.630;55.972;2023-04-07T04:29:57;100481.00;;;9.77;52.97
60087;BME280;45960;53.630;55.972;2023-04-07T04:31:08;100495.72;;;9.84;53.07
60087;BME280;45960;53.630;55.972;2023-04-07T04:32:14;100482.56;;;9.81;53.03
60087;BME280;45960;53.630;55.972;2023-04-07T04:33:17;100497.25;;;9.88;52.86
60087;BME280;45960;53.630;55.972;2023-04-07T04:34:32;100504.31;;;9.89;52.56
60087;BME280;45960;53.630;55.972;2023-04-07T04:35:34;100490.00;;;9.90;52.51
60087;BME280;45960;53.630;55.972;2023-04-07T04:36:44;100495.34;;;9.90;52.82
60087;BME280;45960;53.630;55.972;2023-04-07T04:37:45;100500.69;;;9.90;52.59
60087;BME280;45960;53.630;55.972;2023-04-07T04:38:48;100504.13;;;9.92;52.77
60087;BME280;45960;53.630;55.972;2023-04-07T04:39:52;100506.03;;;9.90;52.55
60087;BME280;45960;53.630;55.972;2023-04-07T04:40:55;100500.69;;;9.90;52.65
60087;BME280;45960;53.630;55.972;2023-04-07T04:42:01;100497.41;;;9.85;52.58
60087;BME280;45960;53.630;55.972;2023-04-07T04:43:08;100518.78;;;9.85;52.09
60087;BME280;45960;53.630;55.972;2023-04-07T04:44:11;100513.81;;;9.79;52.01
60087;BME280;45960;53.630;55.972;2023-04-07T04:45:15;100515.88;;;9.74;51.92
60087;BME280;45960;53.630;55.972;2023-04-07T04:46:20;100516.06;;;9.71;52.07
60087;BME280;45960;53.630;55.972;2023-04-07T04:47:21;100512.59;;;9.69;52.16
60087;BME280;45960;53.630;55.972;2023-04-07T04:48:22;100519.69;;;9.70;51.99
60087;BME280;45960;53.630;55.972;2023-04-07T04:49:24;100526.72;;;9.71;52.01
60087;BME280;45960;53.630;55.972;2023-04-07T04:50:26;100524.06;;;9.71;51.90
60087;BME280;45960;53.630;55.972;2023-04-07T04:51:27;100533.03;;;9.70;51.99
60087;BME280;45960;53.630;55.972;2023-04-07T04:52:35;100530.59;;;9.65;52.04
60087;BME280;45960;53.630;55.972;2023-04-07T04:53:38;100539.47;;;9.66;51.81
60087;BME280;45960;53.630;55.972;2023-04-07T04:54:40;100533.38;;;9.63;52.11
60087;BME280;45960;53.630;55.972;2023-04-07T04:55:42;100534.31;;;9.62;52.12
60087;BME280;45960;53.630;55.972;2023-04-07T04:56:48;100538.72;;;9.63;52.14
60087;BME280;45960;53.630;55.972;2023-04-07T04:57:50;100539.47;;;9.66;51.86
60087;BME280;45960;53.630;55.972;2023-04-07T04:58:57;100540.31;;;9.66;51.94
60087;BME280;45960;53.630;55.972;2023-04-07T05:00:07;100546.34;;;9.70;51.90
60087;BME280;45960;53.630;55.972;2023-04-07T05:01:09;100549.78;;;9.72;51.59
60087;BME280;45960;53.630;55.972;2023-04-07T05:02:15;100547.03;;;9.73;51.72
60087;BME280;45960;53.630;55.972;2023-04-07T05:03:16;100546.19;;;9.73;52.02
60087;BME280;45960;53.630;55.972;2023-04-07T05:04:22;100550.97;;;9.82;51.93
60087;BME280;45960;53.630;55.972;2023-04-07T05:05:32;100564.06;;;9.86;51.85
60087;BME280;45960;53.630;55.972;2023-04-07T05:06:34;100567.47;;;9.89;51.48
60087;BME280;45960;53.630;55.972;2023-04-07T05:07:40;100561.41;;;9.86;51.54
60087;BME280;45960;53.630;55.972;2023-04-07T05:08:44;100564.91;;;9.87;51.43
60087;BME280;45960;53.630;55.972;2023-04-07T05:09:47;100567.47;;;9.89;51.14
60087;BME280;45960;53.630;55.972;2023-04-07T05:10:51;100566.31;;;9.94;51.17
60087;BME280;45960;53.630;55.972;2023-04-07T05:11:55;100565.94;;;10.00;51.12
60087;BME280;45960;53.630;55.972;2023-04-07T05:12:58;100570.91;;;10.06;51.12
60087;BME280;45960;53.630;55.972;2023-04-07T05:13:59;100565.56;;;10.06;50.75
60087;BME280;45960;53.630;55.972;2023-04-07T05:15:00;100567.28;;;10.07;50.68
60087;BME280;45960;53.630;55.972;2023-04-07T05:16:01;100564.78;;;10.04;50.41
60087;BME280;45960;53.630;55.972;2023-04-07T05:17:04;100571.94;;;10.04;50.23
60087;BME280;45960;53.630;55.972;2023-04-07T05:18:05;100567.47;;;10.04;50.14
60087;BME280;45960;53.630;55.972;2023-04-07T05:19:06;100568.84;;;10.12;49.90
60087;BME280;45960;53.630;55.972;2023-04-07T05:20:08;100579.16;;;10.18;49.82
60087;BME280;45960;53.630;55.972;2023-04-07T05:21:12;100574.41;;;10.23;49.47
60087;BME280;45960;53.630;55.972;2023-04-07T05:22:14;100569.50;;;10.31;49.55
60087;BME280;45960;53.630;55.972;2023-04-07T05:23:21;100576.38;;;10.35;49.04
60087;BME280;45960;53.630;55.972;2023-04-07T05:24:27;100582.13;;;10.43;49.03
60087;BME280;45960;53.630;55.972;2023-04-07T05:25:32;100579.25;;;10.46;48.61
60087;BME280;45960;53.630;55.972;2023-04-07T05:26:36;100579.84;;;10.51;48.30
60087;BME280;45960;53.630;55.972;2023-04-07T05:27:39;100588.44;;;10.57;48.31
60087;BME280;45960;53.630;55.972;2023-04-07T05:28:46;100587.28;;;10.61;48.13
60087;BME280;45960;53.630;55.972;2023-04-07T05:29:52;100594.38;;;10.62;47.87
60087;BME280;45960;53.630;55.972;2023-04-07T05:31:01;100587.50;;;10.58;47.47
60087;BME280;45960;53.630;55.972;2023-04-07T05:32:05;100596.28;;;10.60;47.70
60087;BME280;45960;53.630;55.972;2023-04-07T05:33:06;100594.56;;;10.59;47.33
60087;BME280;45960;53.630;55.972;2023-04-07T05:34:14;100596.47;;;10.57;47.38
60087;BME280;45960;53.630;55.972;2023-04-07T05:35:22;100600.06;;;10.56;47.03